sensor_id;sensor_type;location;lat;lon;timestamp;temperature;humidity
16907;DHT22;8570;52.380;4.654;2022-08-04T00:05:00;22.20;99.90
16907;DHT22;8570;52.380;4.654;2022-08-04T00:10:05;22.10;99.90
16907;DHT22;8570;52.380;4.654;2022-08-04T00:15:10;22.10;99.90
16907;DHT22;8570;52.380;4.654;2022-08-04T00:20:17;22.10;99.90
16907;DHT22;8570;52.380;4.654;2022-08-04T00:25:19;22.10;99.90
16907;DHT22;8570;52.380;4.654;2022-08-04T00:30:22;22.00;99.90
16907;DHT22;8570;52.380;4.654;2022-08-04T00:35:27;22.00;99.90
16907;DHT22;8570;52.380;4.654;2022-08-04T00:40:39;22.00;99.90
16907;DHT22;8570;52.380;4.654;2022-08-04T00:46:01;21.90;99.90
16907;DHT22;8570;52.380;4.654;2022-08-04T00:51:13;21.90;99.90
16907;DHT22;8570;52.380;4.654;2022-08-04T01:01:57;21.80;99.90
16907;DHT22;8570;52.380;4.654;2022-08-04T01:07:15;21.80;99.90
16907;DHT22;8570;52.380;4.654;2022-08-04T01:12:31;21.70;99.90
16907;DHT22;8570;52.380;4.654;2022-08-04T01:17:46;21.70;99.90
16907;DHT22;8570;52.380;4.654;2022-08-04T01:23:28;21.70;99.90
16907;DHT22;8570;52.380;4.654;2022-08-04T01:33:53;21.60;99.90
16907;DHT22;8570;52.380;4.654;2022-08-04T01:38:57;21.60;99.90
16907;DHT22;8570;52.380;4.654;2022-08-04T01:44:00;21.60;99.90
16907;DHT22;8570;52.380;4.654;2022-08-04T01:49:05;21.60;99.90
16907;DHT22;8570;52.380;4.654;2022-08-04T01:54:08;21.50;99.90
16907;DHT22;8570;52.380;4.654;2022-08-04T01:59:15;21.50;99.90
16907;DHT22;8570;52.380;4.654;2022-08-04T02:04:19;21.50;99.90
16907;DHT22;8570;52.380;4.654;2022-08-04T02:09:25;21.50;99.90
16907;DHT22;8570;52.380;4.654;2022-08-04T02:14:34;21.40;99.90
16907;DHT22;8570;52.380;4.654;2022-08-04T02:20:13;21.40;99.90
16907;DHT22;8570;52.380;4.654;2022-08-04T02:25:21;21.40;99.90
16907;DHT22;8570;52.380;4.654;2022-08-04T02:30:30;21.40;99.90
16907;DHT22;8570;52.380;4.654;2022-08-04T02:35:37;21.30;99.90
16907;DHT22;8570;52.380;4.654;2022-08-04T02:40:45;21.30;99.90
16907;DHT22;8570;52.380;4.654;2022-08-04T02:45:48;21.30;99.90
16907;DHT22;8570;52.380;4.654;2022-08-04T02:50:55;21.30;99.90
16907;DHT22;8570;52.380;4.654;2022-08-04T02:56:00;21.30;99.90
16907;DHT22;8570;52.380;4.654;2022-08-04T03:01:03;21.20;99.90
16907;DHT22;8570;52.380;4.654;2022-08-04T03:06:34;21.20;99.90
16907;DHT22;8570;52.380;4.654;2022-08-04T03:12:06;21.20;99.90
16907;DHT22;8570;52.380;4.654;2022-08-04T03:17:38;21.20;99.90
16907;DHT22;8570;52.380;4.654;2022-08-04T03:29:18;21.10;99.90
16907;DHT22;8570;52.380;4.654;2022-08-04T03:34:33;21.10;99.90
16907;DHT22;8570;52.380;4.654;2022-08-04T03:45:53;21.00;99.90
16907;DHT22;8570;52.380;4.654;2022-08-04T03:51:11;21.00;99.90
16907;DHT22;8570;52.380;4.654;2022-08-04T03:56:58;21.00;99.90
16907;DHT22;8570;52.380;4.654;2022-08-04T04:02:32;21.00;99.90
16907;DHT22;8570;52.380;4.654;2022-08-04T04:13:32;20.90;99.90
16907;DHT22;8570;52.380;4.654;2022-08-04T04:24:26;20.90;99.90
16907;DHT22;8570;52.380;4.654;2022-08-04T04:30:05;20.90;99.90
16907;DHT22;8570;52.380;4.654;2022-08-04T04:35:20;20.80;99.90
16907;DHT22;8570;52.380;4.654;2022-08-04T04:40:37;20.80;99.90
16907;DHT22;8570;52.380;4.654;2022-08-04T04:45:48;20.80;99.90
16907;DHT22;8570;52.380;4.654;2022-08-04T04:51:04;20.80;99.90
16907;DHT22;8570;52.380;4.654;2022-08-04T04:56:13;20.80;99.90
16907;DHT22;8570;52.380;4.654;2022-08-04T05:01:33;20.80;99.90
16907;DHT22;8570;52.380;4.654;2022-08-04T05:06:59;20.80;99.90
16907;DHT22;8570;52.380;4.654;2022-08-04T05:17:50;20.80;99.90
16907;DHT22;8570;52.380;4.654;2022-08-04T05:22:58;20.80;99.90
16907;DHT22;8570;52.380;4.654;2022-08-04T05:28:07;20.90;99.90
16907;DHT22;8570;52.380;4.654;2022-08-04T05:33:11;20.90;99.90
16907;DHT22;8570;52.380;4.654;2022-08-04T05:38:19;20.90;99.90
16907;DHT22;8570;52.380;4.654;2022-08-04T05:43:23;20.90;99.90
16907;DHT22;8570;52.380;4.654;2022-08-04T05:48:26;20.90;99.90
16907;DHT22;8570;52.380;4.654;2022-08-04T05:53:31;21.00;99.90
16907;DHT22;8570;52.380;4.654;2022-08-04T05:58:34;21.00;99.90
16907;DHT22;8570;52.380;4.654;2022-08-04T06:03:37;21.00;99.90
16907;DHT22;8570;52.380;4.654;2022-08-04T06:08:41;21.00;99.90
16907;DHT22;8570;52.380;4.654;2022-08-04T06:13:54;21.00;99.90
16907;DHT22;8570;52.380;4.654;2022-08-04T06:19:00;21.00;99.90
16907;DHT22;8570;52.380;4.654;2022-08-04T06:24:10;20.90;99.90
16907;DHT22;8570;52.380;4.654;2022-08-04T06:29:14;20.90;99.90
16907;DHT22;8570;52.380;4.654;2022-08-04T06:34:27;20.90;99.90
16907;DHT22;8570;52.380;4.654;2022-08-04T06:39:31;21.00;99.90
16907;DHT22;8570;52.380;4.654;2022-08-04T06:44:36;21.00;99.90
16907;DHT22;8570;52.380;4.654;2022-08-04T06:49:41;21.00;99.90
16907;DHT22;8570;52.380;4.654;2022-08-04T06:54:45;21.10;99.90
16907;DHT22;8570;52.380;4.654;2022-08-04T07:00:01;21.10;99.90
16907;DHT22;8570;52.380;4.654;2022-08-04T07:05:05;21.20;99.90
16907;DHT22;8570;52.380;4.654;2022-08-04T07:10:11;21.20;99.90
16907;DHT22;8570;52.380;4.654;2022-08-04T07:15:16;21.30;99.90
16907;DHT22;8570;52.380;4.654;2022-08-04T07:20:18;21.40;99.90
16907;DHT22;8570;52.380;4.654;2022-08-04T07:25:22;21.40;99.90
16907;DHT22;8570;52.380;4.654;2022-08-04T07:30:25;21.40;99.90
16907;DHT22;8570;52.380;4.654;2022-08-04T07:35:28;21.50;99.90
16907;DHT22;8570;52.380;4.654;2022-08-04T07:40:32;21.60;99.90
16907;DHT22;8570;52.380;4.654;2022-08-04T07:45:36;21.60;99.90
16907;DHT22;8570;52.380;4.654;2022-08-04T07:50:41;21.60;99.90
16907;DHT22;8570;52.380;4.654;2022-08-04T07:55:45;21.70;99.90
16907;DHT22;8570;52.380;4.654;2022-08-04T08:00:47;21.80;99.90
16907;DHT22;8570;52.380;4.654;2022-08-04T08:05:49;21.90;99.90
16907;DHT22;8570;52.380;4.654;2022-08-04T08:10:53;22.00;99.90
16907;DHT22;8570;52.380;4.654;2022-08-04T08:15:56;22.10;99.90
16907;DHT22;8570;52.380;4.654;2022-08-04T08:20:58;22.20;99.90
16907;DHT22;8570;52.380;4.654;2022-08-04T08:26:04;22.30;99.90
16907;DHT22;8570;52.380;4.654;2022-08-04T08:31:06;22.40;99.90
16907;DHT22;8570;52.380;4.654;2022-08-04T08:36:14;22.60;99.90
16907;DHT22;8570;52.380;4.654;2022-08-04T08:47:26;23.30;99.90
16907;DHT22;8570;52.380;4.654;2022-08-04T08:52:51;23.50;99.90
16907;DHT22;8570;52.380;4.654;2022-08-04T08:58:22;23.70;99.90
16907;DHT22;8570;52.380;4.654;2022-08-04T09:09:55;24.20;99.90
16907;DHT22;8570;52.380;4.654;2022-08-04T09:15:04;24.30;99.90
16907;DHT22;8570;52.380;4.654;2022-08-04T09:20:12;24.40;99.70
16907;DHT22;8570;52.380;4.654;2022-08-04T09:25:22;24.40;99.20
16907;DHT22;8570;52.380;4.654;2022-08-04T09:30:30;24.40;99.20
16907;DHT22;8570;52.380;4.654;2022-08-04T09:35:39;24.70;98.60
16907;DHT22;8570;52.380;4.654;2022-08-04T09:40:48;24.80;98.40
16907;DHT22;8570;52.380;4.654;2022-08-04T09:45:57;24.80;97.30
16907;DHT22;8570;52.380;4.654;2022-08-04T09:51:10;24.90;97.40
16907;DHT22;8570;52.380;4.654;2022-08-04T09:56:22;24.90;97.00
16907;DHT22;8570;52.380;4.654;2022-08-04T10:01:27;24.90;96.70
16907;DHT22;8570;52.380;4.654;2022-08-04T10:06:53;24.80;96.40
16907;DHT22;8570;52.380;4.654;2022-08-04T10:12:11;24.90;96.20
16907;DHT22;8570;52.380;4.654;2022-08-04T10:17:37;25.00;95.40
16907;DHT22;8570;52.380;4.654;2022-08-04T10:22:43;25.20;95.40
16907;DHT22;8570;52.380;4.654;2022-08-04T10:27:53;25.30;95.20
16907;DHT22;8570;52.380;4.654;2022-08-04T10:33:02;25.30;95.00
16907;DHT22;8570;52.380;4.654;2022-08-04T10:38:09;25.40;95.40
16907;DHT22;8570;52.380;4.654;2022-08-04T10:43:24;25.60;94.40
16907;DHT22;8570;52.380;4.654;2022-08-04T10:48:36;25.60;94.50
16907;DHT22;8570;52.380;4.654;2022-08-04T10:53:42;25.70;93.80
16907;DHT22;8570;52.380;4.654;2022-08-04T10:58:52;25.80;94.30
16907;DHT22;8570;52.380;4.654;2022-08-04T11:03:57;26.10;94.10
16907;DHT22;8570;52.380;4.654;2022-08-04T11:09:02;26.50;94.40
16907;DHT22;8570;52.380;4.654;2022-08-04T11:14:07;26.90;93.80
16907;DHT22;8570;52.380;4.654;2022-08-04T11:19:23;27.20;93.10
16907;DHT22;8570;52.380;4.654;2022-08-04T11:24:34;27.40;92.40
16907;DHT22;8570;52.380;4.654;2022-08-04T11:29:44;27.50;92.00
16907;DHT22;8570;52.380;4.654;2022-08-04T11:34:48;27.50;91.50
16907;DHT22;8570;52.380;4.654;2022-08-04T11:39:59;27.50;91.60
16907;DHT22;8570;52.380;4.654;2022-08-04T11:45:09;27.70;91.80
16907;DHT22;8570;52.380;4.654;2022-08-04T11:50:16;27.90;90.80
16907;DHT22;8570;52.380;4.654;2022-08-04T11:55:20;27.90;90.50
16907;DHT22;8570;52.380;4.654;2022-08-04T12:00:28;27.80;90.60
16907;DHT22;8570;52.380;4.654;2022-08-04T12:05:34;27.80;90.10
16907;DHT22;8570;52.380;4.654;2022-08-04T12:10:44;27.80;88.90
16907;DHT22;8570;52.380;4.654;2022-08-04T12:15:56;27.60;89.10
16907;DHT22;8570;52.380;4.654;2022-08-04T12:21:06;27.60;89.70
16907;DHT22;8570;52.380;4.654;2022-08-04T12:26:14;27.80;88.50
16907;DHT22;8570;52.380;4.654;2022-08-04T12:31:23;27.90;87.50
16907;DHT22;8570;52.380;4.654;2022-08-04T12:36:30;27.90;87.20
16907;DHT22;8570;52.380;4.654;2022-08-04T12:41:39;28.00;87.10
16907;DHT22;8570;52.380;4.654;2022-08-04T12:46:44;28.10;88.60
16907;DHT22;8570;52.380;4.654;2022-08-04T12:51:47;28.30;88.40
16907;DHT22;8570;52.380;4.654;2022-08-04T12:56:49;28.30;88.30
16907;DHT22;8570;52.380;4.654;2022-08-04T13:01:53;28.20;86.70
16907;DHT22;8570;52.380;4.654;2022-08-04T13:07:01;28.00;87.30
16907;DHT22;8570;52.380;4.654;2022-08-04T13:12:10;27.90;86.70
16907;DHT22;8570;52.380;4.654;2022-08-04T13:17:14;27.70;89.90
16907;DHT22;8570;52.380;4.654;2022-08-04T13:22:23;27.80;90.80
16907;DHT22;8570;52.380;4.654;2022-08-04T13:27:27;27.80;89.00
16907;DHT22;8570;52.380;4.654;2022-08-04T13:32:30;27.80;90.10
16907;DHT22;8570;52.380;4.654;2022-08-04T13:37:34;27.80;87.60
16907;DHT22;8570;52.380;4.654;2022-08-04T13:42:37;27.70;88.60
16907;DHT22;8570;52.380;4.654;2022-08-04T13:47:42;27.80;89.30
16907;DHT22;8570;52.380;4.654;2022-08-04T13:52:45;27.80;87.80
16907;DHT22;8570;52.380;4.654;2022-08-04T13:57:49;27.90;90.40
16907;DHT22;8570;52.380;4.654;2022-08-04T14:03:00;27.90;90.30
16907;DHT22;8570;52.380;4.654;2022-08-04T14:08:06;27.90;90.00
16907;DHT22;8570;52.380;4.654;2022-08-04T14:13:08;27.90;88.30
16907;DHT22;8570;52.380;4.654;2022-08-04T14:18:20;27.80;88.80
16907;DHT22;8570;52.380;4.654;2022-08-04T14:23:22;27.90;85.20
16907;DHT22;8570;52.380;4.654;2022-08-04T14:28:27;27.90;86.60
16907;DHT22;8570;52.380;4.654;2022-08-04T14:33:36;27.90;87.30
16907;DHT22;8570;52.380;4.654;2022-08-04T14:38:47;27.90;83.60
16907;DHT22;8570;52.380;4.654;2022-08-04T14:43:51;27.70;85.20
16907;DHT22;8570;52.380;4.654;2022-08-04T14:49:07;27.70;85.50
16907;DHT22;8570;52.380;4.654;2022-08-04T14:54:10;27.70;86.00
16907;DHT22;8570;52.380;4.654;2022-08-04T14:59:12;27.80;85.60
16907;DHT22;8570;52.380;4.654;2022-08-04T15:04:15;27.80;85.20
16907;DHT22;8570;52.380;4.654;2022-08-04T15:09:19;27.80;87.90
16907;DHT22;8570;52.380;4.654;2022-08-04T15:14:21;27.60;87.40
16907;DHT22;8570;52.380;4.654;2022-08-04T15:19:25;27.60;87.30
16907;DHT22;8570;52.380;4.654;2022-08-04T15:24:27;27.40;86.50
16907;DHT22;8570;52.380;4.654;2022-08-04T15:29:31;27.30;88.00
16907;DHT22;8570;52.380;4.654;2022-08-04T15:34:46;27.10;88.40
16907;DHT22;8570;52.380;4.654;2022-08-04T15:39:54;26.80;89.20
16907;DHT22;8570;52.380;4.654;2022-08-04T15:45:19;26.70;89.40
16907;DHT22;8570;52.380;4.654;2022-08-04T15:50:24;26.60;90.60
16907;DHT22;8570;52.380;4.654;2022-08-04T15:55:30;26.50;90.90
16907;DHT22;8570;52.380;4.654;2022-08-04T16:01:12;26.30;90.70
16907;DHT22;8570;52.380;4.654;2022-08-04T16:06:41;26.10;90.80
16907;DHT22;8570;52.380;4.654;2022-08-04T16:11:46;25.90;91.20
16907;DHT22;8570;52.380;4.654;2022-08-04T16:16:48;25.70;91.30
16907;DHT22;8570;52.380;4.654;2022-08-04T16:21:53;25.60;91.50
16907;DHT22;8570;52.380;4.654;2022-08-04T16:26:56;25.50;91.30
16907;DHT22;8570;52.380;4.654;2022-08-04T16:32:10;25.40;91.80
16907;DHT22;8570;52.380;4.654;2022-08-04T16:37:14;25.30;92.50
16907;DHT22;8570;52.380;4.654;2022-08-04T16:42:33;25.20;93.00
16907;DHT22;8570;52.380;4.654;2022-08-04T16:48:00;25.10;92.90
16907;DHT22;8570;52.380;4.654;2022-08-04T16:53:09;25.10;93.50
16907;DHT22;8570;52.380;4.654;2022-08-04T16:58:13;25.00;93.70
16907;DHT22;8570;52.380;4.654;2022-08-04T17:03:15;24.90;94.20
16907;DHT22;8570;52.380;4.654;2022-08-04T17:08:18;24.80;95.00
16907;DHT22;8570;52.380;4.654;2022-08-04T17:13:23;24.70;95.70
16907;DHT22;8570;52.380;4.654;2022-08-04T17:18:31;24.60;96.20
16907;DHT22;8570;52.380;4.654;2022-08-04T17:23:38;24.50;96.90
16907;DHT22;8570;52.380;4.654;2022-08-04T17:28:41;24.40;97.30
16907;DHT22;8570;52.380;4.654;2022-08-04T17:33:48;24.30;97.70
16907;DHT22;8570;52.380;4.654;2022-08-04T17:38:53;24.20;97.90
16907;DHT22;8570;52.380;4.654;2022-08-04T17:43:57;24.10;98.00
16907;DHT22;8570;52.380;4.654;2022-08-04T17:49:04;24.00;97.90
16907;DHT22;8570;52.380;4.654;2022-08-04T17:54:09;23.80;98.00
16907;DHT22;8570;52.380;4.654;2022-08-04T17:59:17;23.70;98.20
16907;DHT22;8570;52.380;4.654;2022-08-04T18:04:33;23.50;98.30
16907;DHT22;8570;52.380;4.654;2022-08-04T18:09:40;23.40;98.50
16907;DHT22;8570;52.380;4.654;2022-08-04T18:14:45;23.30;98.70
16907;DHT22;8570;52.380;4.654;2022-08-04T18:19:51;23.20;98.80
16907;DHT22;8570;52.380;4.654;2022-08-04T18:24:54;23.00;98.80
16907;DHT22;8570;52.380;4.654;2022-08-04T18:29:57;22.90;98.90
16907;DHT22;8570;52.380;4.654;2022-08-04T18:34:59;22.90;98.90
16907;DHT22;8570;52.380;4.654;2022-08-04T18:40:02;22.80;99.00
16907;DHT22;8570;52.380;4.654;2022-08-04T18:45:05;22.60;98.70
16907;DHT22;8570;52.380;4.654;2022-08-04T18:50:09;22.50;98.70
16907;DHT22;8570;52.380;4.654;2022-08-04T18:55:14;22.30;98.90
16907;DHT22;8570;52.380;4.654;2022-08-04T19:00:16;22.20;99.00
16907;DHT22;8570;52.380;4.654;2022-08-04T19:05:18;22.20;99.20
16907;DHT22;8570;52.380;4.654;2022-08-04T19:10:21;22.10;99.50
16907;DHT22;8570;52.380;4.654;2022-08-04T19:15:23;22.10;99.30
16907;DHT22;8570;52.380;4.654;2022-08-04T19:20:28;22.10;99.20
16907;DHT22;8570;52.380;4.654;2022-08-04T19:25:32;22.00;99.00
16907;DHT22;8570;52.380;4.654;2022-08-04T19:30:37;21.90;98.30
16907;DHT22;8570;52.380;4.654;2022-08-04T19:35:39;21.80;98.10
16907;DHT22;8570;52.380;4.654;2022-08-04T19:40:42;21.60;98.30
16907;DHT22;8570;52.380;4.654;2022-08-04T19:45:45;21.50;98.60
16907;DHT22;8570;52.380;4.654;2022-08-04T19:50:47;21.40;98.80
16907;DHT22;8570;52.380;4.654;2022-08-04T19:55:51;21.30;98.90
16907;DHT22;8570;52.380;4.654;2022-08-04T20:00:53;21.20;99.30
16907;DHT22;8570;52.380;4.654;2022-08-04T20:05:55;21.10;99.60
16907;DHT22;8570;52.380;4.654;2022-08-04T20:10:58;21.10;99.90
16907;DHT22;8570;52.380;4.654;2022-08-04T20:16:00;21.00;99.90
16907;DHT22;8570;52.380;4.654;2022-08-04T20:21:02;21.00;99.90
16907;DHT22;8570;52.380;4.654;2022-08-04T20:26:05;20.90;99.90
16907;DHT22;8570;52.380;4.654;2022-08-04T20:31:08;20.90;99.90
16907;DHT22;8570;52.380;4.654;2022-08-04T20:36:10;20.90;99.90
16907;DHT22;8570;52.380;4.654;2022-08-04T20:41:13;20.90;99.90
16907;DHT22;8570;52.380;4.654;2022-08-04T20:46:15;20.80;99.90
16907;DHT22;8570;52.380;4.654;2022-08-04T20:51:17;20.80;99.90
16907;DHT22;8570;52.380;4.654;2022-08-04T20:56:23;20.80;99.90
16907;DHT22;8570;52.380;4.654;2022-08-04T21:01:25;20.80;99.90
16907;DHT22;8570;52.380;4.654;2022-08-04T21:06:27;20.70;99.90
16907;DHT22;8570;52.380;4.654;2022-08-04T21:11:30;20.70;99.90
16907;DHT22;8570;52.380;4.654;2022-08-04T21:16:32;20.70;99.90
16907;DHT22;8570;52.380;4.654;2022-08-04T21:21:34;20.70;99.90
16907;DHT22;8570;52.380;4.654;2022-08-04T21:26:37;20.70;99.90
16907;DHT22;8570;52.380;4.654;2022-08-04T21:31:45;20.70;99.90
16907;DHT22;8570;52.380;4.654;2022-08-04T21:36:47;20.60;99.90
16907;DHT22;8570;52.380;4.654;2022-08-04T21:41:52;20.60;99.90
16907;DHT22;8570;52.380;4.654;2022-08-04T21:46:53;20.50;99.90
16907;DHT22;8570;52.380;4.654;2022-08-04T21:51:55;20.50;99.90
16907;DHT22;8570;52.380;4.654;2022-08-04T21:56:59;20.40;99.90
16907;DHT22;8570;52.380;4.654;2022-08-04T22:02:02;20.40;99.90
16907;DHT22;8570;52.380;4.654;2022-08-04T22:07:06;20.40;99.90
16907;DHT22;8570;52.380;4.654;2022-08-04T22:12:13;20.40;99.90
16907;DHT22;8570;52.380;4.654;2022-08-04T22:17:15;20.40;99.90
16907;DHT22;8570;52.380;4.654;2022-08-04T22:22:17;20.40;99.90
16907;DHT22;8570;52.380;4.654;2022-08-04T22:27:20;20.50;99.90
16907;DHT22;8570;52.380;4.654;2022-08-04T22:32:36;20.50;99.90
16907;DHT22;8570;52.380;4.654;2022-08-04T22:37:38;20.40;99.90
16907;DHT22;8570;52.380;4.654;2022-08-04T22:42:41;20.40;99.90
16907;DHT22;8570;52.380;4.654;2022-08-04T22:47:43;20.30;99.90
16907;DHT22;8570;52.380;4.654;2022-08-04T22:52:45;20.30;99.90
16907;DHT22;8570;52.380;4.654;2022-08-04T22:57:48;20.20;99.90
16907;DHT22;8570;52.380;4.654;2022-08-04T23:02:50;20.20;99.90
16907;DHT22;8570;52.380;4.654;2022-08-04T23:07:52;20.20;99.90
16907;DHT22;8570;52.380;4.654;2022-08-04T23:12:55;20.10;99.90
16907;DHT22;8570;52.380;4.654;2022-08-04T23:17:57;20.10;99.90
16907;DHT22;8570;52.380;4.654;2022-08-04T23:22:59;20.00;99.90
16907;DHT22;8570;52.380;4.654;2022-08-04T23:28:03;20.00;99.90
16907;DHT22;8570;52.380;4.654;2022-08-04T23:33:05;20.00;99.90
16907;DHT22;8570;52.380;4.654;2022-08-04T23:38:07;19.90;99.90
16907;DHT22;8570;52.380;4.654;2022-08-04T23:43:10;19.90;99.90
16907;DHT22;8570;52.380;4.654;2022-08-04T23:48:12;19.90;99.90
16907;DHT22;8570;52.380;4.654;2022-08-04T23:53:14;19.80;99.90
16907;DHT22;8570;52.380;4.654;2022-08-04T23:58:17;19.80;99.90
